Lewistown, MT

1:29 PM MDT on August 23, 2014 (GMT -0600)
3/4 mile S of Lewistown | Change Station
CLOSE
Current Station
Personal Weather Station
Location: Lewistown, Mt
Elevation: 4189 ft
Nearby Weather Stations

Elev 4189 ft 47.04 °N, 109.42 °W | Updated 11 seconds ago

Rain
Rain Mist
47.3 °F
Feels Like 47 °F
N
0.0
Wind Variable Wind from North
Gusts 0.0 mph

Today
High -- | Low -- °F
--% Chance of Precip.
Yesterday
High -- | Low -- °F
Precip. -- in
6:25 AM 8:14 PM
Waning Crescent, 3% visible
Pressure 30.00 in
Visibility 3.0 miles
Clouds Mostly Cloudy 500 ft
Overcast 900 ft
Windchill 47 °F
Dew Point 46 °F
Humidity 96%
Rainfall 1.48 in
Snow Depth 1 in
UV 3 out of 12
Pollen .90 out of 12
Air Quality Not available.
Flu Activity Not available.
METAR KLWT 231854Z AUTO 01016G26KT 3SM RA BR BKN005 OVC009 10/09 A3003 RMK AO2 PK WND 01027/1813 SLP157 P0026 T01000089

More Conditions Fewer Conditions

Pressure 30.00 in
Visibility 3.0 miles
Clouds Mostly Cloudy 500 ft
Overcast 900 ft
Windchill 47 °F
Dew Point 46 °F
Humidity 96%
Rainfall 1.48 in
Snow Depth 1 in
UV 3 out of 12
Pollen .90 out of 12
Air Quality Not available.
Flu Activity Not available.
METAR KLWT 231854Z AUTO 01016G26KT 3SM RA BR BKN005 OVC009 10/09 A3003 RMK AO2 PK WND 01027/1813 SLP157 P0026 T01000089

More Conditions Fewer Conditions

10-Day Weather Forecast

Almanac

Astronomy

Aug. 23, 2014 Rise Set
Actual Time 6:25 AM MDT 8:14 PM MDT
Civil Twilight 5:52 AM MDT 8:46 PM MDT
Nautical Twilight 5:13 AM MDT 9:26 PM MDT
Astronomical Twilight 4:29 AM MDT 10:09 PM MDT
Moon 4:42 AM MDT 7:01 PM MDT
Length of Visible Light 14h 53m
Length of Day
13h 48m
Tomorrow will be 3m 10s shorter.
Waning Crescent, 3% of the Moon is Illuminated
Today
Waning Crescent
Aug 25
New
Sep 2
First Quarter
Sep 8
Full
Sep 15
Last Quarter

Today's Extremes

State Highs State Lows

Community

WunderPhotos

Upload Photos

1,746,583 photos uploaded!

WunderBlogs® & News

Nearby

Snow Depth

Station Depth Elevation
Crystal Lake 1 in 6050 ft
Daisy Peak 0 in 7600 ft
Spur Park 0 in 8100 ft
Deadman Creek 0 in 6450 ft
Onion Park 0 in 7410 ft

Earthquake Activity

City Distance Mag. Time & Date
No recent earthquake activity has been reported nearby.
Minimum magnitude displayed is 2.5.

Coastal Water Temperatures

Place Temperature
No Stations Reporting

Nearby Weather Stations